sensor_id;sensor_type;location;lat;lon;timestamp;temperature;humidity
12769;DHT22;6448;48.916;8.990;2023-04-15T00:00:58;13.40;44.30
12769;DHT22;6448;48.916;8.990;2023-04-15T00:02:00;13.40;44.30
12769;DHT22;6448;48.916;8.990;2023-04-15T00:03:04;13.40;44.30
12769;DHT22;6448;48.916;8.990;2023-04-15T00:04:06;13.40;44.30
12769;DHT22;6448;48.916;8.990;2023-04-15T00:05:07;13.40;44.30
12769;DHT22;6448;48.916;8.990;2023-04-15T00:06:09;13.40;44.30
12769;DHT22;6448;48.916;8.990;2023-04-15T00:07:10;13.30;44.30
12769;DHT22;6448;48.916;8.990;2023-04-15T00:08:12;13.30;44.30
12769;DHT22;6448;48.916;8.990;2023-04-15T00:09:13;13.30;44.40
12769;DHT22;6448;48.916;8.990;2023-04-15T00:10:14;13.30;44.30
12769;DHT22;6448;48.916;8.990;2023-04-15T00:11:15;13.30;44.40
12769;DHT22;6448;48.916;8.990;2023-04-15T00:12:19;13.30;44.40
12769;DHT22;6448;48.916;8.990;2023-04-15T00:13:21;13.30;44.40
12769;DHT22;6448;48.916;8.990;2023-04-15T00:14:23;13.30;44.40
12769;DHT22;6448;48.916;8.990;2023-04-15T00:15:24;13.30;44.40
12769;DHT22;6448;48.916;8.990;2023-04-15T00:16:26;13.20;44.40
12769;DHT22;6448;48.916;8.990;2023-04-15T00:17:27;13.30;44.40
12769;DHT22;6448;48.916;8.990;2023-04-15T00:18:29;13.20;44.40
12769;DHT22;6448;48.916;8.990;2023-04-15T00:19:31;13.20;44.40
12769;DHT22;6448;48.916;8.990;2023-04-15T00:20:33;13.20;44.40
12769;DHT22;6448;48.916;8.990;2023-04-15T00:21:33;13.20;44.40
12769;DHT22;6448;48.916;8.990;2023-04-15T00:22:36;13.20;44.40
12769;DHT22;6448;48.916;8.990;2023-04-15T00:23:36;13.20;44.40
12769;DHT22;6448;48.916;8.990;2023-04-15T00:24:38;13.20;44.50
12769;DHT22;6448;48.916;8.990;2023-04-15T00:25:39;13.30;44.50
12769;DHT22;6448;48.916;8.990;2023-04-15T00:26:41;13.20;44.50
12769;DHT22;6448;48.916;8.990;2023-04-15T00:27:43;13.20;44.60
12769;DHT22;6448;48.916;8.990;2023-04-15T00:28:45;13.20;44.60
12769;DHT22;6448;48.916;8.990;2023-04-15T00:29:46;13.20;44.70
12769;DHT22;6448;48.916;8.990;2023-04-15T00:30:47;13.20;44.70
12769;DHT22;6448;48.916;8.990;2023-04-15T00:31:48;13.10;44.60
12769;DHT22;6448;48.916;8.990;2023-04-15T00:32:50;13.10;44.50
12769;DHT22;6448;48.916;8.990;2023-04-15T00:33:55;13.10;44.60
12769;DHT22;6448;48.916;8.990;2023-04-15T00:34:56;13.10;44.60
12769;DHT22;6448;48.916;8.990;2023-04-15T00:35:57;13.10;44.70
12769;DHT22;6448;48.916;8.990;2023-04-15T00:36:59;13.10;44.80
12769;DHT22;6448;48.916;8.990;2023-04-15T00:38:00;13.10;44.80
12769;DHT22;6448;48.916;8.990;2023-04-15T00:39:02;13.00;44.70
12769;DHT22;6448;48.916;8.990;2023-04-15T00:40:03;13.00;44.60
12769;DHT22;6448;48.916;8.990;2023-04-15T00:41:08;13.00;44.60
12769;DHT22;6448;48.916;8.990;2023-04-15T00:42:09;13.00;44.60
12769;DHT22;6448;48.916;8.990;2023-04-15T00:43:13;13.00;44.60
12769;DHT22;6448;48.916;8.990;2023-04-15T00:44:13;13.00;44.70
12769;DHT22;6448;48.916;8.990;2023-04-15T00:45:15;13.00;44.70
12769;DHT22;6448;48.916;8.990;2023-04-15T00:46:17;13.00;44.70
12769;DHT22;6448;48.916;8.990;2023-04-15T00:47:21;12.90;44.80
12769;DHT22;6448;48.916;8.990;2023-04-15T00:48:22;12.90;44.80
12769;DHT22;6448;48.916;8.990;2023-04-15T00:49:24;12.90;44.80
12769;DHT22;6448;48.916;8.990;2023-04-15T00:50:26;12.90;44.80
12769;DHT22;6448;48.916;8.990;2023-04-15T00:51:28;12.90;44.80
12769;DHT22;6448;48.916;8.990;2023-04-15T00:52:29;13.10;44.90
12769;DHT22;6448;48.916;8.990;2023-04-15T00:53:31;12.90;44.80
12769;DHT22;6448;48.916;8.990;2023-04-15T00:54:32;12.90;44.80
12769;DHT22;6448;48.916;8.990;2023-04-15T00:55:34;12.80;44.80
12769;DHT22;6448;48.916;8.990;2023-04-15T00:56:37;12.90;44.80
12769;DHT22;6448;48.916;8.990;2023-04-15T00:57:39;12.80;44.80
12769;DHT22;6448;48.916;8.990;2023-04-15T00:58:42;12.80;44.80
12769;DHT22;6448;48.916;8.990;2023-04-15T00:59:45;12.80;44.80
12769;DHT22;6448;48.916;8.990;2023-04-15T01:00:47;12.80;44.80
12769;DHT22;6448;48.916;8.990;2023-04-15T01:01:48;12.80;44.80
12769;DHT22;6448;48.916;8.990;2023-04-15T01:02:51;12.80;44.90
12769;DHT22;6448;48.916;8.990;2023-04-15T01:03:52;12.80;44.90
12769;DHT22;6448;48.916;8.990;2023-04-15T01:04:55;12.70;44.90
12769;DHT22;6448;48.916;8.990;2023-04-15T01:05:56;12.80;44.90
12769;DHT22;6448;48.916;8.990;2023-04-15T01:06:58;12.70;44.90
12769;DHT22;6448;48.916;8.990;2023-04-15T01:07:59;12.70;44.90
12769;DHT22;6448;48.916;8.990;2023-04-15T01:09:01;12.70;45.00
12769;DHT22;6448;48.916;8.990;2023-04-15T01:10:03;12.70;45.00
12769;DHT22;6448;48.916;8.990;2023-04-15T01:11:05;12.70;45.00
12769;DHT22;6448;48.916;8.990;2023-04-15T01:12:06;12.70;45.00
12769;DHT22;6448;48.916;8.990;2023-04-15T01:13:08;12.70;45.10
12769;DHT22;6448;48.916;8.990;2023-04-15T01:14:10;12.60;45.10
12769;DHT22;6448;48.916;8.990;2023-04-15T01:15:12;12.60;45.10
12769;DHT22;6448;48.916;8.990;2023-04-15T01:16:13;12.60;45.10
12769;DHT22;6448;48.916;8.990;2023-04-15T01:17:16;12.60;45.20
12769;DHT22;6448;48.916;8.990;2023-04-15T01:18:17;12.60;45.30
12769;DHT22;6448;48.916;8.990;2023-04-15T01:19:19;12.60;45.40
12769;DHT22;6448;48.916;8.990;2023-04-15T01:20:21;12.60;45.50
12769;DHT22;6448;48.916;8.990;2023-04-15T01:21:23;12.50;45.50
12769;DHT22;6448;48.916;8.990;2023-04-15T01:22:24;12.60;45.50
12769;DHT22;6448;48.916;8.990;2023-04-15T01:23:27;12.50;45.40
12769;DHT22;6448;48.916;8.990;2023-04-15T01:24:29;12.50;45.40
12769;DHT22;6448;48.916;8.990;2023-04-15T01:25:34;12.50;45.40
12769;DHT22;6448;48.916;8.990;2023-04-15T01:26:35;12.50;45.40
12769;DHT22;6448;48.916;8.990;2023-04-15T01:27:41;12.50;45.40
12769;DHT22;6448;48.916;8.990;2023-04-15T01:28:42;12.50;45.40
12769;DHT22;6448;48.916;8.990;2023-04-15T01:29:44;12.50;45.40
12769;DHT22;6448;48.916;8.990;2023-04-15T01:30:45;12.50;45.30
12769;DHT22;6448;48.916;8.990;2023-04-15T01:31:50;12.40;45.50
12769;DHT22;6448;48.916;8.990;2023-04-15T01:32:52;12.40;45.40
12769;DHT22;6448;48.916;8.990;2023-04-15T01:33:54;12.40;45.30
12769;DHT22;6448;48.916;8.990;2023-04-15T01:34:54;12.40;45.20
12769;DHT22;6448;48.916;8.990;2023-04-15T01:35:58;12.40;45.30
12769;DHT22;6448;48.916;8.990;2023-04-15T01:36:59;12.40;45.30
12769;DHT22;6448;48.916;8.990;2023-04-15T01:38:04;12.40;45.40
12769;DHT22;6448;48.916;8.990;2023-04-15T01:39:05;12.40;45.40
12769;DHT22;6448;48.916;8.990;2023-04-15T01:40:07;12.40;45.50
12769;DHT22;6448;48.916;8.990;2023-04-15T01:41:12;12.30;45.50
12769;DHT22;6448;48.916;8.990;2023-04-15T01:42:14;12.40;45.50
12769;DHT22;6448;48.916;8.990;2023-04-15T01:43:16;12.40;45.60
12769;DHT22;6448;48.916;8.990;2023-04-15T01:44:18;12.30;45.60
12769;DHT22;6448;48.916;8.990;2023-04-15T01:45:19;12.30;45.70
12769;DHT22;6448;48.916;8.990;2023-04-15T01:46:21;12.30;45.70
12769;DHT22;6448;48.916;8.990;2023-04-15T01:47:22;12.30;45.60
12769;DHT22;6448;48.916;8.990;2023-04-15T01:48:24;12.30;45.60
12769;DHT22;6448;48.916;8.990;2023-04-15T01:49:25;12.30;45.70
12769;DHT22;6448;48.916;8.990;2023-04-15T01:50:29;12.30;45.70
12769;DHT22;6448;48.916;8.990;2023-04-15T01:51:31;12.30;45.70
12769;DHT22;6448;48.916;8.990;2023-04-15T01:52:32;12.20;45.60
12769;DHT22;6448;48.916;8.990;2023-04-15T01:53:34;12.20;45.70
12769;DHT22;6448;48.916;8.990;2023-04-15T01:54:36;12.20;45.70
12769;DHT22;6448;48.916;8.990;2023-04-15T01:55:38;12.20;45.80
12769;DHT22;6448;48.916;8.990;2023-04-15T01:56:40;12.20;45.80
12769;DHT22;6448;48.916;8.990;2023-04-15T01:57:45;12.20;45.80
12769;DHT22;6448;48.916;8.990;2023-04-15T01:58:46;12.20;45.80
12769;DHT22;6448;48.916;8.990;2023-04-15T01:59:48;12.30;45.90
12769;DHT22;6448;48.916;8.990;2023-04-15T02:00:49;12.20;45.80
12769;DHT22;6448;48.916;8.990;2023-04-15T02:01:51;12.10;45.80
12769;DHT22;6448;48.916;8.990;2023-04-15T02:02:52;12.20;45.90
12769;DHT22;6448;48.916;8.990;2023-04-15T02:03:54;12.10;45.80
12769;DHT22;6448;48.916;8.990;2023-04-15T02:04:56;12.10;45.80
12769;DHT22;6448;48.916;8.990;2023-04-15T02:05:57;12.10;45.80
12769;DHT22;6448;48.916;8.990;2023-04-15T02:06:59;12.10;45.80
12769;DHT22;6448;48.916;8.990;2023-04-15T02:08:00;12.10;45.90
12769;DHT22;6448;48.916;8.990;2023-04-15T02:09:03;12.10;45.90
12769;DHT22;6448;48.916;8.990;2023-04-15T02:10:04;12.10;45.90
12769;DHT22;6448;48.916;8.990;2023-04-15T02:11:06;12.00;45.90
12769;DHT22;6448;48.916;8.990;2023-04-15T02:12:08;12.00;45.90
12769;DHT22;6448;48.916;8.990;2023-04-15T02:13:10;12.00;46.00
12769;DHT22;6448;48.916;8.990;2023-04-15T02:14:11;12.00;46.00
12769;DHT22;6448;48.916;8.990;2023-04-15T02:15:12;12.00;46.00
12769;DHT22;6448;48.916;8.990;2023-04-15T02:16:17;12.00;46.00
12769;DHT22;6448;48.916;8.990;2023-04-15T02:17:19;12.00;46.00
12769;DHT22;6448;48.916;8.990;2023-04-15T02:18:20;12.20;46.10
12769;DHT22;6448;48.916;8.990;2023-04-15T02:19:21;11.90;46.00
12769;DHT22;6448;48.916;8.990;2023-04-15T02:20:22;12.00;46.10
12769;DHT22;6448;48.916;8.990;2023-04-15T02:21:25;12.10;46.20
12769;DHT22;6448;48.916;8.990;2023-04-15T02:22:26;11.90;46.00
12769;DHT22;6448;48.916;8.990;2023-04-15T02:23:28;11.90;46.10
12769;DHT22;6448;48.916;8.990;2023-04-15T02:24:30;11.90;46.10
12769;DHT22;6448;48.916;8.990;2023-04-15T02:25:31;11.90;46.10
12769;DHT22;6448;48.916;8.990;2023-04-15T02:26:33;11.90;46.10
12769;DHT22;6448;48.916;8.990;2023-04-15T02:27:36;11.90;46.20
12769;DHT22;6448;48.916;8.990;2023-04-15T02:28:37;11.90;46.20
12769;DHT22;6448;48.916;8.990;2023-04-15T02:29:38;12.00;46.30
12769;DHT22;6448;48.916;8.990;2023-04-15T02:30:41;11.90;46.30
12769;DHT22;6448;48.916;8.990;2023-04-15T02:31:42;11.90;46.20
12769;DHT22;6448;48.916;8.990;2023-04-15T02:32:45;11.90;46.20
12769;DHT22;6448;48.916;8.990;2023-04-15T02:33:46;11.90;46.20
12769;DHT22;6448;48.916;8.990;2023-04-15T02:34:47;12.00;46.30
12769;DHT22;6448;48.916;8.990;2023-04-15T02:35:48;11.80;46.30
12769;DHT22;6448;48.916;8.990;2023-04-15T02:36:50;11.90;46.30
12769;DHT22;6448;48.916;8.990;2023-04-15T02:37:55;11.80;46.20
12769;DHT22;6448;48.916;8.990;2023-04-15T02:38:57;11.80;46.20
12769;DHT22;6448;48.916;8.990;2023-04-15T02:39:58;11.80;46.20
12769;DHT22;6448;48.916;8.990;2023-04-15T02:41:00;11.80;46.20
12769;DHT22;6448;48.916;8.990;2023-04-15T02:42:02;11.80;46.30
12769;DHT22;6448;48.916;8.990;2023-04-15T02:43:06;11.80;46.30
12769;DHT22;6448;48.916;8.990;2023-04-15T02:44:08;11.80;46.40
12769;DHT22;6448;48.916;8.990;2023-04-15T02:45:12;11.70;46.40
12769;DHT22;6448;48.916;8.990;2023-04-15T02:46:14;11.70;46.40
12769;DHT22;6448;48.916;8.990;2023-04-15T02:47:16;11.70;46.50
12769;DHT22;6448;48.916;8.990;2023-04-15T02:48:17;11.70;46.50
12769;DHT22;6448;48.916;8.990;2023-04-15T02:49:20;11.70;46.50
12769;DHT22;6448;48.916;8.990;2023-04-15T02:50:21;11.70;46.50
12769;DHT22;6448;48.916;8.990;2023-04-15T02:51:23;11.70;46.50
12769;DHT22;6448;48.916;8.990;2023-04-15T02:52:24;11.70;46.50
12769;DHT22;6448;48.916;8.990;2023-04-15T02:53:26;11.70;46.60
12769;DHT22;6448;48.916;8.990;2023-04-15T02:54:27;11.70;46.60
12769;DHT22;6448;48.916;8.990;2023-04-15T02:55:29;11.60;46.50
12769;DHT22;6448;48.916;8.990;2023-04-15T02:56:30;11.70;46.60
12769;DHT22;6448;48.916;8.990;2023-04-15T02:57:31;11.70;46.60
12769;DHT22;6448;48.916;8.990;2023-04-15T02:58:40;11.60;46.60
12769;DHT22;6448;48.916;8.990;2023-04-15T02:59:42;11.60;46.50
12769;DHT22;6448;48.916;8.990;2023-04-15T03:00:43;11.60;46.50
12769;DHT22;6448;48.916;8.990;2023-04-15T03:01:45;11.60;46.50
12769;DHT22;6448;48.916;8.990;2023-04-15T03:02:46;11.60;46.50
12769;DHT22;6448;48.916;8.990;2023-04-15T03:03:51;11.60;46.40
12769;DHT22;6448;48.916;8.990;2023-04-15T03:04:52;11.60;46.40
12769;DHT22;6448;48.916;8.990;2023-04-15T03:05:55;11.60;46.50
12769;DHT22;6448;48.916;8.990;2023-04-15T03:06:57;11.60;46.50
12769;DHT22;6448;48.916;8.990;2023-04-15T03:07:59;11.60;46.50
12769;DHT22;6448;48.916;8.990;2023-04-15T03:09:02;11.60;46.50
12769;DHT22;6448;48.916;8.990;2023-04-15T03:10:08;11.60;46.50
12769;DHT22;6448;48.916;8.990;2023-04-15T03:11:10;11.60;46.60
12769;DHT22;6448;48.916;8.990;2023-04-15T03:12:11;11.60;46.60
12769;DHT22;6448;48.916;8.990;2023-04-15T03:13:12;11.50;46.60
12769;DHT22;6448;48.916;8.990;2023-04-15T03:14:15;11.50;46.60
12769;DHT22;6448;48.916;8.990;2023-04-15T03:15:20;11.50;46.60
12769;DHT22;6448;48.916;8.990;2023-04-15T03:16:24;11.50;46.70
12769;DHT22;6448;48.916;8.990;2023-04-15T03:17:26;11.50;46.70
12769;DHT22;6448;48.916;8.990;2023-04-15T03:18:28;11.50;46.70
12769;DHT22;6448;48.916;8.990;2023-04-15T03:19:29;11.50;46.70
12769;DHT22;6448;48.916;8.990;2023-04-15T03:20:32;11.50;46.70
12769;DHT22;6448;48.916;8.990;2023-04-15T03:21:36;11.50;46.70
12769;DHT22;6448;48.916;8.990;2023-04-15T03:22:37;11.50;47.30
12769;DHT22;6448;48.916;8.990;2023-04-15T03:23:39;11.50;46.70
12769;DHT22;6448;48.916;8.990;2023-04-15T03:24:40;11.50;46.70
12769;DHT22;6448;48.916;8.990;2023-04-15T03:25:41;11.50;46.60
12769;DHT22;6448;48.916;8.990;2023-04-15T03:26:44;11.50;46.70
12769;DHT22;6448;48.916;8.990;2023-04-15T03:27:49;11.50;46.70
12769;DHT22;6448;48.916;8.990;2023-04-15T03:28:51;11.40;46.70
12769;DHT22;6448;48.916;8.990;2023-04-15T03:29:54;11.40;46.70
12769;DHT22;6448;48.916;8.990;2023-04-15T03:30:58;11.40;46.60
12769;DHT22;6448;48.916;8.990;2023-04-15T03:32:00;11.40;46.80
12769;DHT22;6448;48.916;8.990;2023-04-15T03:33:06;11.40;46.70
12769;DHT22;6448;48.916;8.990;2023-04-15T03:34:08;11.40;46.70
12769;DHT22;6448;48.916;8.990;2023-04-15T03:35:10;11.40;46.70
12769;DHT22;6448;48.916;8.990;2023-04-15T03:36:11;11.40;46.80
12769;DHT22;6448;48.916;8.990;2023-04-15T03:37:13;11.50;46.80
12769;DHT22;6448;48.916;8.990;2023-04-15T03:38:15;11.30;47.30
12769;DHT22;6448;48.916;8.990;2023-04-15T03:39:16;11.30;46.70
12769;DHT22;6448;48.916;8.990;2023-04-15T03:40:19;11.50;46.80
12769;DHT22;6448;48.916;8.990;2023-04-15T03:41:20;11.30;46.70
12769;DHT22;6448;48.916;8.990;2023-04-15T03:42:22;11.30;46.70
12769;DHT22;6448;48.916;8.990;2023-04-15T03:43:23;11.30;46.70
12769;DHT22;6448;48.916;8.990;2023-04-15T03:44:25;11.30;46.60
12769;DHT22;6448;48.916;8.990;2023-04-15T03:45:27;11.30;47.30
12769;DHT22;6448;48.916;8.990;2023-04-15T03:46:29;11.30;46.80
12769;DHT22;6448;48.916;8.990;2023-04-15T03:47:30;11.20;46.70
12769;DHT22;6448;48.916;8.990;2023-04-15T03:48:31;11.20;46.70
12769;DHT22;6448;48.916;8.990;2023-04-15T03:49:32;11.30;46.80
12769;DHT22;6448;48.916;8.990;2023-04-15T03:50:34;11.20;46.80
12769;DHT22;6448;48.916;8.990;2023-04-15T03:51:35;11.30;46.90
12769;DHT22;6448;48.916;8.990;2023-04-15T03:52:36;11.30;46.90
12769;DHT22;6448;48.916;8.990;2023-04-15T03:53:37;11.20;46.90
12769;DHT22;6448;48.916;8.990;2023-04-15T03:54:39;11.20;46.90
12769;DHT22;6448;48.916;8.990;2023-04-15T03:55:40;11.20;46.90
12769;DHT22;6448;48.916;8.990;2023-04-15T03:56:42;11.20;47.00
12769;DHT22;6448;48.916;8.990;2023-04-15T03:57:42;11.20;47.10
12769;DHT22;6448;48.916;8.990;2023-04-15T03:58:44;11.20;47.00
12769;DHT22;6448;48.916;8.990;2023-04-15T03:59:45;11.20;47.00
12769;DHT22;6448;48.916;8.990;2023-04-15T04:00:48;11.20;47.10
12769;DHT22;6448;48.916;8.990;2023-04-15T04:01:49;11.20;47.10
12769;DHT22;6448;48.916;8.990;2023-04-15T04:02:51;11.10;47.10
12769;DHT22;6448;48.916;8.990;2023-04-15T04:03:52;11.20;47.10
12769;DHT22;6448;48.916;8.990;2023-04-15T04:04:53;11.20;47.10
12769;DHT22;6448;48.916;8.990;2023-04-15T04:05:54;11.10;47.10
12769;DHT22;6448;48.916;8.990;2023-04-15T04:06:56;11.10;47.10
12769;DHT22;6448;48.916;8.990;2023-04-15T04:07:57;11.10;47.10
12769;DHT22;6448;48.916;8.990;2023-04-15T04:08:59;11.10;47.10
12769;DHT22;6448;48.916;8.990;2023-04-15T04:10:01;11.10;47.10
12769;DHT22;6448;48.916;8.990;2023-04-15T04:11:04;11.10;47.10
12769;DHT22;6448;48.916;8.990;2023-04-15T04:12:05;11.10;47.10
12769;DHT22;6448;48.916;8.990;2023-04-15T04:13:07;11.20;47.10
12769;DHT22;6448;48.916;8.990;2023-04-15T04:14:08;11.10;47.00
12769;DHT22;6448;48.916;8.990;2023-04-15T04:15:10;11.10;47.10
12769;DHT22;6448;48.916;8.990;2023-04-15T04:16:13;11.10;47.10
12769;DHT22;6448;48.916;8.990;2023-04-15T04:17:15;11.00;47.50
12769;DHT22;6448;48.916;8.990;2023-04-15T04:18:16;11.10;47.20
12769;DHT22;6448;48.916;8.990;2023-04-15T04:19:17;11.10;47.20
12769;DHT22;6448;48.916;8.990;2023-04-15T04:20:19;11.00;47.20
12769;DHT22;6448;48.916;8.990;2023-04-15T04:21:21;11.20;47.30
12769;DHT22;6448;48.916;8.990;2023-04-15T04:22:22;11.00;47.20
12769;DHT22;6448;48.916;8.990;2023-04-15T04:23:24;11.00;47.20
12769;DHT22;6448;48.916;8.990;2023-04-15T04:24:25;11.00;47.30
12769;DHT22;6448;48.916;8.990;2023-04-15T04:25:27;11.00;47.30
12769;DHT22;6448;48.916;8.990;2023-04-15T04:26:28;11.00;47.30
12769;DHT22;6448;48.916;8.990;2023-04-15T04:27:29;11.00;47.30
12769;DHT22;6448;48.916;8.990;2023-04-15T04:28:30;11.00;47.40
12769;DHT22;6448;48.916;8.990;2023-04-15T04:29:32;11.00;47.40
12769;DHT22;6448;48.916;8.990;2023-04-15T04:30:34;11.00;47.40
12769;DHT22;6448;48.916;8.990;2023-04-15T04:31:38;11.00;47.30
12769;DHT22;6448;48.916;8.990;2023-04-15T04:32:38;10.90;47.30
12769;DHT22;6448;48.916;8.990;2023-04-15T04:33:40;10.90;47.30
12769;DHT22;6448;48.916;8.990;2023-04-15T04:34:41;10.90;47.30
12769;DHT22;6448;48.916;8.990;2023-04-15T04:35:43;10.90;47.40
12769;DHT22;6448;48.916;8.990;2023-04-15T04:36:44;10.90;47.40
12769;DHT22;6448;48.916;8.990;2023-04-15T04:37:46;10.90;47.50
12769;DHT22;6448;48.916;8.990;2023-04-15T04:38:46;10.90;48.10
12769;DHT22;6448;48.916;8.990;2023-04-15T04:39:48;10.90;47.50
12769;DHT22;6448;48.916;8.990;2023-04-15T04:40:49;10.90;47.50
12769;DHT22;6448;48.916;8.990;2023-04-15T04:41:51;10.90;47.50
12769;DHT22;6448;48.916;8.990;2023-04-15T04:42:51;10.90;47.80
12769;DHT22;6448;48.916;8.990;2023-04-15T04:43:53;10.90;47.60
12769;DHT22;6448;48.916;8.990;2023-04-15T04:44:54;10.90;47.60
12769;DHT22;6448;48.916;8.990;2023-04-15T04:45:56;10.80;47.50
12769;DHT22;6448;48.916;8.990;2023-04-15T04:46:58;10.90;47.60
12769;DHT22;6448;48.916;8.990;2023-04-15T04:47:59;10.80;47.60
12769;DHT22;6448;48.916;8.990;2023-04-15T04:49:00;10.80;47.60
12769;DHT22;6448;48.916;8.990;2023-04-15T04:50:02;10.80;47.50
12769;DHT22;6448;48.916;8.990;2023-04-15T04:51:03;10.80;47.60
12769;DHT22;6448;48.916;8.990;2023-04-15T04:52:05;10.80;47.60
12769;DHT22;6448;48.916;8.990;2023-04-15T04:53:06;10.80;47.60
12769;DHT22;6448;48.916;8.990;2023-04-15T04:54:08;10.80;47.60
12769;DHT22;6448;48.916;8.990;2023-04-15T04:55:09;10.80;47.60
12769;DHT22;6448;48.916;8.990;2023-04-15T04:56:11;10.80;47.60
12769;DHT22;6448;48.916;8.990;2023-04-15T04:57:11;10.70;47.60
12769;DHT22;6448;48.916;8.990;2023-04-15T04:58:14;10.80;47.60
12769;DHT22;6448;48.916;8.990;2023-04-15T04:59:14;10.80;47.60
12769;DHT22;6448;48.916;8.990;2023-04-15T05:00:16;10.70;47.60
12769;DHT22;6448;48.916;8.990;2023-04-15T05:01:17;10.80;47.70
12769;DHT22;6448;48.916;8.990;2023-04-15T05:02:20;10.70;47.60
12769;DHT22;6448;48.916;8.990;2023-04-15T05:03:21;10.70;47.70
12769;DHT22;6448;48.916;8.990;2023-04-15T05:04:23;10.70;47.80
12769;DHT22;6448;48.916;8.990;2023-04-15T05:05:24;10.70;47.80
12769;DHT22;6448;48.916;8.990;2023-04-15T05:06:26;10.70;47.90
12769;DHT22;6448;48.916;8.990;2023-04-15T05:07:30;10.60;47.80
12769;DHT22;6448;48.916;8.990;2023-04-15T05:08:31;10.60;47.80
12769;DHT22;6448;48.916;8.990;2023-04-15T05:09:32;10.60;47.90
12769;DHT22;6448;48.916;8.990;2023-04-15T05:10:36;10.60;48.00
12769;DHT22;6448;48.916;8.990;2023-04-15T05:11:36;10.70;48.00
12769;DHT22;6448;48.916;8.990;2023-04-15T05:12:38;10.80;48.20
12769;DHT22;6448;48.916;8.990;2023-04-15T05:13:39;10.60;48.10
12769;DHT22;6448;48.916;8.990;2023-04-15T05:14:41;10.60;48.00
12769;DHT22;6448;48.916;8.990;2023-04-15T05:15:42;10.60;48.00
12769;DHT22;6448;48.916;8.990;2023-04-15T05:16:44;10.70;48.10
12769;DHT22;6448;48.916;8.990;2023-04-15T05:17:47;10.60;48.10
12769;DHT22;6448;48.916;8.990;2023-04-15T05:18:48;10.60;48.10
12769;DHT22;6448;48.916;8.990;2023-04-15T05:19:49;10.60;48.10
12769;DHT22;6448;48.916;8.990;2023-04-15T05:20:51;10.60;48.10
12769;DHT22;6448;48.916;8.990;2023-04-15T05:21:53;10.60;48.10
12769;DHT22;6448;48.916;8.990;2023-04-15T05:22:54;10.60;48.10
12769;DHT22;6448;48.916;8.990;2023-04-15T05:23:55;10.60;48.20
12769;DHT22;6448;48.916;8.990;2023-04-15T05:24:56;10.60;48.20
12769;DHT22;6448;48.916;8.990;2023-04-15T05:25:58;10.50;48.20
12769;DHT22;6448;48.916;8.990;2023-04-15T05:26:58;10.50;48.20
12769;DHT22;6448;48.916;8.990;2023-04-15T05:28:01;10.50;48.30
12769;DHT22;6448;48.916;8.990;2023-04-15T05:29:01;10.60;48.30
12769;DHT22;6448;48.916;8.990;2023-04-15T05:30:04;10.50;48.30
12769;DHT22;6448;48.916;8.990;2023-04-15T05:31:05;10.50;48.30
12769;DHT22;6448;48.916;8.990;2023-04-15T05:32:08;10.50;48.30
12769;DHT22;6448;48.916;8.990;2023-04-15T05:33:10;10.50;48.30
12769;DHT22;6448;48.916;8.990;2023-04-15T05:34:12;10.50;48.30
12769;DHT22;6448;48.916;8.990;2023-04-15T05:35:15;10.50;48.40
12769;DHT22;6448;48.916;8.990;2023-04-15T05:36:17;10.50;48.40
12769;DHT22;6448;48.916;8.990;2023-04-15T05:37:18;10.50;48.50
12769;DHT22;6448;48.916;8.990;2023-04-15T05:38:20;10.50;48.50
12769;DHT22;6448;48.916;8.990;2023-04-15T05:39:21;10.50;48.50
12769;DHT22;6448;48.916;8.990;2023-04-15T05:40:22;10.40;48.50
12769;DHT22;6448;48.916;8.990;2023-04-15T05:41:23;10.50;48.70
12769;DHT22;6448;48.916;8.990;2023-04-15T05:42:25;10.50;48.70
12769;DHT22;6448;48.916;8.990;2023-04-15T05:43:26;10.50;48.70
12769;DHT22;6448;48.916;8.990;2023-04-15T05:44:28;10.50;48.70
12769;DHT22;6448;48.916;8.990;2023-04-15T05:45:28;10.50;48.70
12769;DHT22;6448;48.916;8.990;2023-04-15T05:46:30;10.50;48.70
12769;DHT22;6448;48.916;8.990;2023-04-15T05:47:31;10.40;48.70
12769;DHT22;6448;48.916;8.990;2023-04-15T05:48:34;10.50;48.70
12769;DHT22;6448;48.916;8.990;2023-04-15T05:49:35;10.40;48.70
12769;DHT22;6448;48.916;8.990;2023-04-15T05:50:36;10.40;48.80
12769;DHT22;6448;48.916;8.990;2023-04-15T05:51:40;10.40;48.80
12769;DHT22;6448;48.916;8.990;2023-04-15T05:52:42;10.40;48.90
12769;DHT22;6448;48.916;8.990;2023-04-15T05:53:42;10.40;49.00
12769;DHT22;6448;48.916;8.990;2023-04-15T05:54:45;10.40;49.10
12769;DHT22;6448;48.916;8.990;2023-04-15T05:55:47;10.40;49.10
12769;DHT22;6448;48.916;8.990;2023-04-15T05:56:47;10.40;49.10
12769;DHT22;6448;48.916;8.990;2023-04-15T05:57:49;10.40;49.20
12769;DHT22;6448;48.916;8.990;2023-04-15T05:58:50;10.30;49.20
12769;DHT22;6448;48.916;8.990;2023-04-15T05:59:52;10.30;49.20
12769;DHT22;6448;48.916;8.990;2023-04-15T06:00:53;10.40;49.40
12769;DHT22;6448;48.916;8.990;2023-04-15T06:01:55;10.40;49.40
12769;DHT22;6448;48.916;8.990;2023-04-15T06:02:56;10.30;49.30
12769;DHT22;6448;48.916;8.990;2023-04-15T06:03:59;10.30;49.40
12769;DHT22;6448;48.916;8.990;2023-04-15T06:05:01;10.30;49.40
12769;DHT22;6448;48.916;8.990;2023-04-15T06:06:03;10.30;49.50
12769;DHT22;6448;48.916;8.990;2023-04-15T06:07:04;10.30;49.50
12769;DHT22;6448;48.916;8.990;2023-04-15T06:08:06;10.30;49.60
12769;DHT22;6448;48.916;8.990;2023-04-15T06:09:08;10.30;49.60
12769;DHT22;6448;48.916;8.990;2023-04-15T06:10:09;10.30;49.60
12769;DHT22;6448;48.916;8.990;2023-04-15T06:11:11;10.30;49.60
12769;DHT22;6448;48.916;8.990;2023-04-15T06:12:12;10.30;49.60
12769;DHT22;6448;48.916;8.990;2023-04-15T06:13:13;10.30;49.70
12769;DHT22;6448;48.916;8.990;2023-04-15T06:14:14;10.30;49.70
12769;DHT22;6448;48.916;8.990;2023-04-15T06:15:16;10.30;49.80
12769;DHT22;6448;48.916;8.990;2023-04-15T06:16:17;10.30;49.80
12769;DHT22;6448;48.916;8.990;2023-04-15T06:17:18;10.30;49.90
12769;DHT22;6448;48.916;8.990;2023-04-15T06:18:19;10.30;49.90
12769;DHT22;6448;48.916;8.990;2023-04-15T06:19:23;10.30;50.00
12769;DHT22;6448;48.916;8.990;2023-04-15T06:20:24;10.30;50.00
12769;DHT22;6448;48.916;8.990;2023-04-15T06:21:26;10.30;50.00
12769;DHT22;6448;48.916;8.990;2023-04-15T06:22:26;10.30;50.10
12769;DHT22;6448;48.916;8.990;2023-04-15T06:23:28;10.30;50.10
12769;DHT22;6448;48.916;8.990;2023-04-15T06:24:29;10.30;50.10
12769;DHT22;6448;48.916;8.990;2023-04-15T06:25:32;10.30;50.20
12769;DHT22;6448;48.916;8.990;2023-04-15T06:26:33;10.30;50.10
12769;DHT22;6448;48.916;8.990;2023-04-15T06:27:35;10.30;50.20
12769;DHT22;6448;48.916;8.990;2023-04-15T06:28:36;10.30;50.20
12769;DHT22;6448;48.916;8.990;2023-04-15T06:29:38;10.40;50.20
12769;DHT22;6448;48.916;8.990;2023-04-15T06:30:40;10.30;50.20
12769;DHT22;6448;48.916;8.990;2023-04-15T06:31:41;10.40;50.20
12769;DHT22;6448;48.916;8.990;2023-04-15T06:32:42;10.30;50.30
12769;DHT22;6448;48.916;8.990;2023-04-15T06:33:43;10.40;50.30
12769;DHT22;6448;48.916;8.990;2023-04-15T06:34:46;10.40;50.40
12769;DHT22;6448;48.916;8.990;2023-04-15T06:35:47;10.40;50.40
12769;DHT22;6448;48.916;8.990;2023-04-15T06:36:49;10.40;50.50